Time;durP1;ratioP1;P1;durP2;ratioP2;P2;SDS_P1;SDS_P2;PMS_P1;PMS_P2;Temp;Humidity;BMP_temperature;BMP_pressure;BME280_temperature;BME280_humidity;BME280_pressure;Samples;Min_cycle;Max_cycle;Signal;HPM_P1;HPM_P2
2022/03/17 00:00:07;;;;;;;32.78;21.30;;;;;;;;;;5046080;28;20118;-79
2022/03/17 00:02:33;;;;;;;33.50;21.23;;;;;;;;;;5043915;28;20025;-79
2022/03/17 00:04:59;;;;;;;34.40;21.10;;;;;;;;;;5032736;28;20051;-79
2022/03/17 00:07:25;;;;;;;32.20;20.95;;;;;;;;;;5041862;28;20112;-80
2022/03/17 00:09:51;;;;;;;34.65;20.52;;;;;;;;;;5042515;28;20036;-80
2022/03/17 00:12:17;;;;;;;35.78;21.27;;;;;;;;;;5032103;28;20033;-78
2022/03/17 00:14:43;;;;;;;33.28;21.10;;;;;;;;;;5035888;28;20032;-78
2022/03/17 00:17:09;;;;;;;32.80;20.00;;;;;;;;;;5047169;28;20532;-79
2022/03/17 00:19:38;;;;;;;32.38;21.10;;;;;;;;;;5042433;28;20033;-78
2022/03/17 00:22:06;;;;;;;31.98;21.73;;;;;;;;;;5039578;28;20120;-79
2022/03/17 00:24:32;;;;;;;31.17;20.73;;;;;;;;;;5046268;28;20152;-78
2022/03/17 00:26:59;;;;;;;34.72;22.15;;;;;;;;;;5041232;28;20037;-80
2022/03/17 00:29:25;;;;;;;33.22;21.77;;;;;;;;;;5045216;28;20383;-78
2022/03/17 00:31:51;;;;;;;35.85;21.65;;;;;;;;;;5043939;28;20025;-77
2022/03/17 00:34:17;;;;;;;35.05;21.95;;;;;;;;;;5039173;28;20041;-78
2022/03/17 00:36:44;;;;;;;34.22;22.90;;;;;;;;;;5040036;28;20040;-78
2022/03/17 00:39:10;;;;;;;34.38;22.85;;;;;;;;;;5043800;28;20055;-78
2022/03/17 00:41:36;;;;;;;35.03;21.77;;;;;;;;;;5061607;28;20025;-78
2022/03/17 00:44:02;;;;;;;33.58;22.30;;;;;;;;;;5047376;28;20037;-79
2022/03/17 00:46:29;;;;;;;34.83;22.08;;;;;;;;;;5038929;28;20366;-79
2022/03/17 00:48:55;;;;;;;40.85;22.80;;;;;;;;;;5039100;28;20096;-80
2022/03/17 00:51:21;;;;;;;37.90;21.83;;;;;;;;;;5050677;28;20068;-79
2022/03/17 00:53:47;;;;;;;32.47;21.08;;;;;;;;;;5039136;28;20057;-81
2022/03/17 00:56:13;;;;;;;35.90;21.40;;;;;;;;;;5038461;28;20025;-79
2022/03/17 00:58:39;;;;;;;36.65;22.00;;;;;;;;;;5041101;28;20035;-80
2022/03/17 01:01:05;;;;;;;36.13;22.80;;;;;;;;;;5040567;28;20022;-79
2022/03/17 01:03:31;;;;;;;34.17;22.02;;;;;;;;;;5045109;28;20039;-80
2022/03/17 01:05:59;;;;;;;32.05;22.40;;;;;;;;;;5048317;28;20037;-78
2022/03/17 01:08:25;;;;;;;34.17;22.08;;;;;;;;;;5041856;28;20038;-80
2022/03/17 01:10:52;;;;;;;32.63;20.58;;;;;;;;;;5030926;28;20104;-79
2022/03/17 01:13:18;;;;;;;36.17;21.35;;;;;;;;;;5031589;28;20040;-80
2022/03/17 01:15:44;;;;;;;38.47;22.55;;;;;;;;;;5037125;28;20049;-81
2022/03/17 01:18:10;;;;;;;34.60;22.35;;;;;;;;;;5036851;28;20072;-78
2022/03/17 01:20:37;;;;;;;36.05;21.20;;;;;;;;;;5031712;28;20034;-79
2022/03/17 01:23:04;;;;;;;35.40;22.00;;;;;;;;;;5038002;28;20120;-80
2022/03/17 01:25:30;;;;;;;34.17;22.10;;;;;;;;;;5040050;28;20049;-79
2022/03/17 01:27:57;;;;;;;39.08;22.60;;;;;;;;;;5038274;28;20121;-79
2022/03/17 01:30:23;;;;;;;34.95;22.45;;;;;;;;;;5042038;28;20031;-79
2022/03/17 01:32:49;;;;;;;39.22;21.90;;;;;;;;;;5044784;28;20693;-79
2022/03/17 01:35:15;;;;;;;35.50;22.33;;;;;;;;;;5042124;28;20024;-79
2022/03/17 01:37:41;;;;;;;37.90;23.50;;;;;;;;;;5032474;28;20025;-80
2022/03/17 01:40:08;;;;;;;37.78;22.13;;;;;;;;;;5042099;28;20040;-79
2022/03/17 01:42:34;;;;;;;35.40;21.92;;;;;;;;;;5045553;28;20021;-80
2022/03/17 01:45:00;;;;;;;34.75;21.80;;;;;;;;;;5045336;28;20466;-78
2022/03/17 01:47:29;;;;;;;36.28;21.92;;;;;;;;;;5046357;28;20533;-79
2022/03/17 01:49:56;;;;;;;38.05;22.85;;;;;;;;;;5057408;28;20031;-79
2022/03/17 01:52:23;;;;;;;36.28;21.90;;;;;;;;;;5043230;28;20118;-79
2022/03/17 01:54:49;;;;;;;38.03;22.45;;;;;;;;;;5045136;28;20041;-80
2022/03/17 01:57:16;;;;;;;36.47;23.15;;;;;;;;;;5047375;28;20037;-77
2022/03/17 01:59:42;;;;;;;40.53;24.40;;;;;;;;;;5031783;28;20675;-79
2022/03/17 02:02:09;;;;;;;42.47;24.88;;;;;;;;;;5033658;28;20038;-80
2022/03/17 02:04:35;;;;;;;42.63;25.92;;;;;;;;;;5040885;28;20032;-78
2022/03/17 02:07:03;;;;;;;45.97;26.77;;;;;;;;;;5042930;28;20035;-79
2022/03/17 02:09:29;;;;;;;47.50;28.13;;;;;;;;;;5039215;28;20025;-78
2022/03/17 02:14:47;;;;;;;48.58;30.70;;;;;;;;;;5034309;28;20060;-82
2022/03/17 02:17:14;;;;;;;54.55;29.90;;;;;;;;;;5039092;28;20439;-85
2022/03/17 02:19:40;;;;;;;51.47;31.90;;;;;;;;;;5039254;28;20034;-81
2022/03/17 02:22:07;;;;;;;53.65;31.70;;;;;;;;;;5035505;28;20072;-80
2022/03/17 02:27:19;;;;;;;62.78;35.83;;;;;;;;;;5045310;28;20036;-82
2022/03/17 02:29:46;;;;;;;68.10;35.85;;;;;;;;;;5031941;28;20025;-81
2022/03/17 02:32:12;;;;;;;64.15;36.28;;;;;;;;;;5038676;28;20029;-81
2022/03/17 02:34:38;;;;;;;71.47;38.30;;;;;;;;;;5041715;28;20029;-79
2022/03/17 02:37:04;;;;;;;67.40;37.75;;;;;;;;;;5046752;28;20471;-81
2022/03/17 02:39:30;;;;;;;80.88;40.38;;;;;;;;;;5044968;28;20503;-81
2022/03/17 02:41:56;;;;;;;83.47;42.35;;;;;;;;;;5042888;28;20572;-79
2022/03/17 02:44:22;;;;;;;79.65;41.38;;;;;;;;;;5041365;28;20064;-78
2022/03/17 02:46:48;;;;;;;82.18;42.15;;;;;;;;;;5035827;28;20025;-79
2022/03/17 02:49:15;;;;;;;58.60;33.97;;;;;;;;;;5044509;28;20528;-77
2022/03/17 02:51:42;;;;;;;33.13;19.95;;;;;;;;;;5034457;28;20053;-78
2022/03/17 02:54:08;;;;;;;30.60;17.50;;;;;;;;;;5037726;28;20025;-78
2022/03/17 02:56:34;;;;;;;22.40;13.40;;;;;;;;;;5042892;28;20037;-77
2022/03/17 02:59:00;;;;;;;16.83;11.07;;;;;;;;;;5054735;28;20120;-79
2022/03/17 03:01:26;;;;;;;15.07;9.10;;;;;;;;;;5039511;28;20029;-78
2022/03/17 03:03:53;;;;;;;15.57;8.98;;;;;;;;;;5047858;28;20095;-78
2022/03/17 03:06:19;;;;;;;20.63;10.30;;;;;;;;;;5045881;28;20103;-76
2022/03/17 03:08:45;;;;;;;16.60;9.35;;;;;;;;;;5037238;28;20398;-78
2022/03/17 03:11:11;;;;;;;21.15;9.95;;;;;;;;;;5040093;28;20026;-78
2022/03/17 03:13:37;;;;;;;19.10;9.10;;;;;;;;;;5048699;28;20037;-78
2022/03/17 03:16:04;;;;;;;16.48;9.68;;;;;;;;;;5042646;28;20502;-79
2022/03/17 03:18:30;;;;;;;17.52;9.73;;;;;;;;;;5035899;28;20033;-78
2022/03/17 03:20:56;;;;;;;18.40;10.80;;;;;;;;;;5045029;28;20094;-77
2022/03/17 03:23:22;;;;;;;16.60;10.45;;;;;;;;;;5044700;28;20113;-78
2022/03/17 03:25:48;;;;;;;21.40;11.35;;;;;;;;;;5036158;28;20119;-79
2022/03/17 03:28:14;;;;;;;20.15;10.38;;;;;;;;;;5037933;28;20044;-77
2022/03/17 03:30:40;;;;;;;18.27;10.75;;;;;;;;;;5039801;28;20462;-76
2022/03/17 03:33:07;;;;;;;18.50;9.60;;;;;;;;;;5041091;28;20131;-77
2022/03/17 03:38:19;;;;;;;17.30;9.70;;;;;;;;;;5037757;28;20083;-77
2022/03/17 03:40:45;;;;;;;18.55;10.43;;;;;;;;;;5048818;28;20056;-80
2022/03/17 03:43:11;;;;;;;22.02;11.30;;;;;;;;;;5038607;28;20028;-79
2022/03/17 03:45:37;;;;;;;20.98;11.45;;;;;;;;;;5038302;28;20022;-77
2022/03/17 03:48:03;;;;;;;22.10;13.18;;;;;;;;;;5045862;28;20051;-78
2022/03/17 03:50:30;;;;;;;27.92;14.60;;;;;;;;;;5036257;28;20079;-76
2022/03/17 03:52:57;;;;;;;28.33;15.40;;;;;;;;;;5045672;28;20122;-77
2022/03/17 03:55:23;;;;;;;28.45;16.02;;;;;;;;;;5036321;28;20032;-78
2022/03/17 03:57:49;;;;;;;32.45;16.50;;;;;;;;;;5044491;28;20103;-77
2022/03/17 04:00:33;;;;;;;28.30;17.15;;;;;;;;;;5040303;28;20041;-77
2022/03/17 04:03:03;;;;;;;29.13;17.35;;;;;;;;;;5041249;28;20127;-77
2022/03/17 04:05:37;;;;;;;41.47;18.92;;;;;;;;;;5049445;28;20025;-76
2022/03/17 04:08:03;;;;;;;37.10;18.55;;;;;;;;;;5039014;28;20091;-78
2022/03/17 04:10:30;;;;;;;35.40;20.63;;;;;;;;;;5041614;28;20033;-76
2022/03/17 04:12:56;;;;;;;38.15;20.70;;;;;;;;;;5047841;28;20024;-77
2022/03/17 04:15:22;;;;;;;41.00;21.05;;;;;;;;;;5044744;28;20029;-77
2022/03/17 04:17:51;;;;;;;33.85;20.95;;;;;;;;;;5047379;28;20026;-79
2022/03/17 04:20:18;;;;;;;33.15;20.33;;;;;;;;;;5040161;28;20033;-77
2022/03/17 04:22:44;;;;;;;44.13;17.60;;;;;;;;;;5044584;28;20032;-76
2022/03/17 04:25:10;;;;;;;30.25;11.70;;;;;;;;;;5049333;28;20042;-79
2022/03/17 04:27:36;;;;;;;32.38;11.07;;;;;;;;;;5040730;28;20025;-77
2022/03/17 04:30:02;;;;;;;31.58;10.52;;;;;;;;;;5036543;28;20021;-77
2022/03/17 04:32:28;;;;;;;34.85;10.20;;;;;;;;;;5037739;28;20402;-77
2022/03/17 04:34:54;;;;;;;23.50;8.18;;;;;;;;;;5046051;28;20036;-77
2022/03/17 04:37:20;;;;;;;27.33;8.25;;;;;;;;;;5064395;28;20100;-78
2022/03/17 04:39:46;;;;;;;30.48;6.63;;;;;;;;;;5039395;28;20461;-78
2022/03/17 04:42:12;;;;;;;39.67;6.97;;;;;;;;;;5032728;28;20033;-77
2022/03/17 04:44:38;;;;;;;28.80;6.32;;;;;;;;;;5036998;28;20029;-77
2022/03/17 04:47:04;;;;;;;30.45;6.82;;;;;;;;;;5035516;28;20033;-78
2022/03/17 04:49:31;;;;;;;33.13;6.65;;;;;;;;;;5039311;28;20040;-77
2022/03/17 04:51:57;;;;;;;24.60;5.50;;;;;;;;;;5036140;28;20397;-78
2022/03/17 04:54:23;;;;;;;26.15;4.70;;;;;;;;;;5039930;28;20101;-77
2022/03/17 04:56:49;;;;;;;29.50;4.82;;;;;;;;;;5039056;28;20061;-77
2022/03/17 04:59:15;;;;;;;23.70;5.82;;;;;;;;;;5038417;28;20422;-77
2022/03/17 05:01:41;;;;;;;21.38;5.07;;;;;;;;;;5048543;28;20056;-76
2022/03/17 05:04:07;;;;;;;29.42;5.03;;;;;;;;;;5032600;28;20068;-76
2022/03/17 05:06:34;;;;;;;31.67;4.43;;;;;;;;;;5035229;28;20068;-77
2022/03/17 05:09:00;;;;;;;24.50;4.22;;;;;;;;;;5036160;28;20033;-76
2022/03/17 05:11:26;;;;;;;29.90;5.25;;;;;;;;;;5041634;28;20029;-77
2022/03/17 05:13:52;;;;;;;20.00;3.40;;;;;;;;;;5052582;28;20084;-74
2022/03/17 05:16:18;;;;;;;19.75;3.35;;;;;;;;;;5050390;28;20047;-76
2022/03/17 05:18:44;;;;;;;22.90;4.25;;;;;;;;;;5048027;28;20055;-77
2022/03/17 05:21:10;;;;;;;22.05;4.85;;;;;;;;;;5049392;28;20409;-75
2022/03/17 05:23:38;;;;;;;36.63;4.18;;;;;;;;;;5034398;28;20032;-77
2022/03/17 05:26:04;;;;;;;23.30;4.35;;;;;;;;;;5047889;28;20083;-77
2022/03/17 05:28:30;;;;;;;19.80;4.13;;;;;;;;;;5029578;28;20048;-77
2022/03/17 05:30:57;;;;;;;21.38;3.70;;;;;;;;;;5051149;28;20066;-77
2022/03/17 05:33:23;;;;;;;22.13;3.95;;;;;;;;;;5035744;28;20031;-78
2022/03/17 05:35:49;;;;;;;26.42;3.25;;;;;;;;;;5043334;28;20028;-78
2022/03/17 05:38:15;;;;;;;23.10;3.83;;;;;;;;;;5040692;28;20025;-78
2022/03/17 05:40:42;;;;;;;26.45;4.50;;;;;;;;;;5042886;28;20374;-77
2022/03/17 05:43:09;;;;;;;23.17;3.38;;;;;;;;;;5033274;28;20034;-77
2022/03/17 05:45:36;;;;;;;28.90;4.75;;;;;;;;;;5031620;28;20034;-77
2022/03/17 05:48:03;;;;;;;24.23;3.92;;;;;;;;;;5038327;28;20029;-79
2022/03/17 05:50:31;;;;;;;29.40;3.42;;;;;;;;;;5034997;28;20086;-78
2022/03/17 05:52:57;;;;;;;26.05;4.45;;;;;;;;;;5043362;28;20482;-76
2022/03/17 05:55:24;;;;;;;30.65;4.78;;;;;;;;;;5036073;28;20110;-79
2022/03/17 05:57:51;;;;;;;25.70;3.22;;;;;;;;;;5045994;28;20098;-78
2022/03/17 06:00:18;;;;;;;24.83;4.32;;;;;;;;;;5037915;28;20548;-76
2022/03/17 06:02:45;;;;;;;31.88;4.07;;;;;;;;;;5050375;28;20043;-78
2022/03/17 06:05:14;;;;;;;35.83;4.22;;;;;;;;;;5041833;28;20041;-77
2022/03/17 06:07:41;;;;;;;27.50;3.88;;;;;;;;;;5036854;28;20034;-77
2022/03/17 06:10:11;;;;;;;36.72;4.88;;;;;;;;;;5038905;28;20120;-78
2022/03/17 06:12:38;;;;;;;33.80;4.25;;;;;;;;;;5041392;28;20025;-77
2022/03/17 06:15:05;;;;;;;21.40;3.53;;;;;;;;;;5036051;28;20429;-78
2022/03/17 06:17:37;;;;;;;19.10;3.30;;;;;;;;;;5034332;28;20029;-77
2022/03/17 06:20:04;;;;;;;26.80;3.15;;;;;;;;;;5039669;28;20037;-76
2022/03/17 06:22:30;;;;;;;27.35;3.95;;;;;;;;;;5042790;28;20034;-77
2022/03/17 06:24:56;;;;;;;27.15;3.60;;;;;;;;;;5039947;28;20454;-77
2022/03/17 06:27:22;;;;;;;24.10;3.47;;;;;;;;;;5029699;28;20037;-77
2022/03/17 06:29:48;;;;;;;27.00;3.75;;;;;;;;;;5034308;28;20029;-79
2022/03/17 06:32:14;;;;;;;23.60;4.03;;;;;;;;;;5043261;28;20398;-77
2022/03/17 06:34:40;;;;;;;19.83;3.35;;;;;;;;;;5052827;28;20033;-77
2022/03/17 06:37:06;;;;;;;25.40;3.42;;;;;;;;;;5042971;28;20018;-77
2022/03/17 06:39:32;;;;;;;30.10;4.38;;;;;;;;;;5043175;28;20044;-77
2022/03/17 06:41:58;;;;;;;25.10;4.05;;;;;;;;;;5041420;28;20569;-77
2022/03/17 06:44:24;;;;;;;23.83;4.25;;;;;;;;;;5043961;28;20159;-77
2022/03/17 06:46:50;;;;;;;28.27;3.25;;;;;;;;;;5030163;28;20064;-78
2022/03/17 06:49:16;;;;;;;17.65;2.53;;;;;;;;;;5034250;28;20016;-77
2022/03/17 06:51:42;;;;;;;23.08;2.97;;;;;;;;;;5041071;28;20053;-77
2022/03/17 06:54:08;;;;;;;21.10;3.15;;;;;;;;;;5042148;28;20104;-77
2022/03/17 06:56:34;;;;;;;28.73;4.03;;;;;;;;;;5037782;28;20037;-77
2022/03/17 06:59:00;;;;;;;23.85;3.40;;;;;;;;;;5044558;28;20047;-77
2022/03/17 07:01:26;;;;;;;28.30;3.25;;;;;;;;;;5045152;28;20041;-77
2022/03/17 07:03:52;;;;;;;19.58;2.88;;;;;;;;;;5038545;28;20040;-78
2022/03/17 07:06:19;;;;;;;27.17;3.53;;;;;;;;;;5039015;28;20036;-77
2022/03/17 07:08:45;;;;;;;20.65;3.08;;;;;;;;;;5043602;28;20040;-77
2022/03/17 07:11:11;;;;;;;22.35;3.25;;;;;;;;;;5043831;28;20037;-77
2022/03/17 07:13:37;;;;;;;33.67;4.28;;;;;;;;;;5032805;28;20033;-78
2022/03/17 07:16:03;;;;;;;19.58;3.50;;;;;;;;;;5044533;28;20388;-77
2022/03/17 07:18:29;;;;;;;24.88;5.65;;;;;;;;;;5046272;28;20037;-77
2022/03/17 07:20:57;;;;;;;25.98;3.67;;;;;;;;;;5048647;28;20025;-79
2022/03/17 07:23:24;;;;;;;19.23;3.35;;;;;;;;;;5033687;28;20041;-78
2022/03/17 07:25:50;;;;;;;22.27;2.53;;;;;;;;;;5052482;28;20394;-78
2022/03/17 07:28:16;;;;;;;27.23;3.65;;;;;;;;;;5042772;28;20486;-77
2022/03/17 07:30:43;;;;;;;21.02;3.15;;;;;;;;;;5041796;28;20025;-77
2022/03/17 07:33:12;;;;;;;26.42;3.33;;;;;;;;;;5032323;28;20112;-80
2022/03/17 07:35:39;;;;;;;19.23;2.90;;;;;;;;;;5036505;28;20032;-78
2022/03/17 07:38:05;;;;;;;20.55;2.65;;;;;;;;;;5037871;28;20073;-78
2022/03/17 07:40:32;;;;;;;23.17;2.30;;;;;;;;;;5031188;28;20028;-76
2022/03/17 07:42:59;;;;;;;18.38;2.83;;;;;;;;;;5031046;28;20568;-78
2022/03/17 07:45:25;;;;;;;21.48;2.60;;;;;;;;;;5032794;28;20025;-79
2022/03/17 07:47:51;;;;;;;16.85;2.60;;;;;;;;;;5031945;28;20519;-77
2022/03/17 07:50:18;;;;;;;16.52;2.40;;;;;;;;;;5051019;28;20028;-77
2022/03/17 07:52:45;;;;;;;24.02;2.53;;;;;;;;;;5064510;28;20060;-77
2022/03/17 07:55:11;;;;;;;24.65;3.80;;;;;;;;;;5052268;28;20026;-79
2022/03/17 07:57:37;;;;;;;15.85;2.53;;;;;;;;;;5051877;28;20041;-78
2022/03/17 08:00:04;;;;;;;28.45;2.97;;;;;;;;;;5051320;28;20132;-78
2022/03/17 08:02:30;;;;;;;17.70;2.55;;;;;;;;;;5032668;28;20112;-78
2022/03/17 08:04:57;;;;;;;18.40;3.13;;;;;;;;;;5048367;28;20033;-78
2022/03/17 08:07:23;;;;;;;21.20;3.28;;;;;;;;;;5051027;28;20457;-77
2022/03/17 08:09:49;;;;;;;16.65;2.88;;;;;;;;;;5038601;28;20033;-78
2022/03/17 08:12:15;;;;;;;20.00;3.20;;;;;;;;;;5032897;28;20078;-77
2022/03/17 08:14:41;;;;;;;24.05;3.33;;;;;;;;;;5031109;28;20025;-79
2022/03/17 08:17:09;;;;;;;26.98;3.10;;;;;;;;;;5032882;28;20113;-76
2022/03/17 08:19:35;;;;;;;24.25;3.08;;;;;;;;;;5048927;28;20025;-77
2022/03/17 08:22:01;;;;;;;18.27;3.05;;;;;;;;;;5036484;28;20025;-76
2022/03/17 08:24:27;;;;;;;26.15;2.80;;;;;;;;;;5052361;28;20047;-78
2022/03/17 08:26:55;;;;;;;17.13;2.20;;;;;;;;;;5050847;28;20044;-78
2022/03/17 08:29:21;;;;;;;17.10;2.92;;;;;;;;;;5050806;28;20021;-77
2022/03/17 08:31:47;;;;;;;23.17;3.50;;;;;;;;;;5034666;28;20102;-78
2022/03/17 08:34:13;;;;;;;22.48;3.33;;;;;;;;;;5036126;28;20034;-79
2022/03/17 08:36:41;;;;;;;15.10;2.97;;;;;;;;;;5053069;28;20043;-77
2022/03/17 08:39:07;;;;;;;14.60;2.95;;;;;;;;;;5053398;28;20123;-77
2022/03/17 08:41:33;;;;;;;15.00;2.30;;;;;;;;;;5040127;28;20075;-78
2022/03/17 08:43:59;;;;;;;13.40;2.13;;;;;;;;;;5031669;28;20060;-77
2022/03/17 08:49:19;;;;;;;13.25;2.35;;;;;;;;;;5066844;28;20528;-77
2022/03/17 08:51:47;;;;;;;12.00;2.28;;;;;;;;;;5037882;28;20054;-78
2022/03/17 08:54:13;;;;;;;15.43;2.25;;;;;;;;;;5032502;28;20084;-77
2022/03/17 08:56:40;;;;;;;21.80;3.33;;;;;;;;;;5033952;28;20519;-75
2022/03/17 08:59:06;;;;;;;15.18;2.30;;;;;;;;;;5033131;28;20087;-78
2022/03/17 09:01:33;;;;;;;13.43;2.08;;;;;;;;;;5037655;28;20486;-76
2022/03/17 09:04:00;;;;;;;18.42;2.47;;;;;;;;;;5033432;28;20342;-77
2022/03/17 09:06:26;;;;;;;12.68;1.98;;;;;;;;;;5032258;28;20033;-79
2022/03/17 09:08:52;;;;;;;19.08;2.03;;;;;;;;;;5032033;28;20488;-77
2022/03/17 09:11:18;;;;;;;11.73;2.47;;;;;;;;;;5046948;28;20037;-79
2022/03/17 09:13:44;;;;;;;15.85;2.20;;;;;;;;;;5035877;28;20037;-77
2022/03/17 09:16:10;;;;;;;14.73;2.15;;;;;;;;;;5072085;28;20090;-78
2022/03/17 09:18:36;;;;;;;14.23;1.98;;;;;;;;;;5073428;28;20036;-78
2022/03/17 09:21:03;;;;;;;18.55;2.53;;;;;;;;;;5055136;28;20443;-78
2022/03/17 09:23:29;;;;;;;12.00;2.00;;;;;;;;;;5044242;28;20051;-79
2022/03/17 09:25:56;;;;;;;15.77;2.15;;;;;;;;;;5039793;28;20075;-78
2022/03/17 09:28:22;;;;;;;9.73;1.98;;;;;;;;;;5038485;28;20053;-77
2022/03/17 09:30:49;;;;;;;9.98;2.30;;;;;;;;;;5045672;28;20077;-76
2022/03/17 09:33:15;;;;;;;10.70;2.20;;;;;;;;;;5043327;28;20037;-78
2022/03/17 09:35:41;;;;;;;10.93;2.05;;;;;;;;;;5042233;28;20490;-77
2022/03/17 09:38:09;;;;;;;11.35;1.77;;;;;;;;;;5047292;28;20108;-77
2022/03/17 09:40:36;;;;;;;11.82;2.35;;;;;;;;;;5068708;28;20439;-77
2022/03/17 09:45:50;;;;;;;8.40;1.90;;;;;;;;;;5072890;28;20109;-76
2022/03/17 09:48:17;;;;;;;9.82;2.40;;;;;;;;;;5033938;28;20096;-75
2022/03/17 09:50:44;;;;;;;10.20;2.28;;;;;;;;;;5042344;28;20025;-76
2022/03/17 09:53:10;;;;;;;11.40;2.05;;;;;;;;;;5031907;28;20052;-75
2022/03/17 09:55:37;;;;;;;8.15;1.95;;;;;;;;;;5032111;28;20022;-76
2022/03/17 09:58:03;;;;;;;6.15;2.10;;;;;;;;;;5031595;28;20053;-77
2022/03/17 10:00:48;;;;;;;6.03;1.60;;;;;;;;;;5030975;28;20044;-76
2022/03/17 10:03:34;;;;;;;9.80;2.00;;;;;;;;;;5032725;28;20033;-76
2022/03/17 10:06:05;;;;;;;8.32;1.60;;;;;;;;;;5030738;28;20029;-76
2022/03/17 10:08:33;;;;;;;10.65;2.15;;;;;;;;;;5032572;28;20025;-76
2022/03/17 10:10:59;;;;;;;11.00;1.92;;;;;;;;;;5031384;28;20036;-77
2022/03/17 10:13:26;;;;;;;10.68;2.10;;;;;;;;;;5031818;28;20038;-77
2022/03/17 10:16:07;;;;;;;13.15;2.55;;;;;;;;;;5039763;28;20466;-77
2022/03/17 10:18:37;;;;;;;19.50;2.85;;;;;;;;;;5071367;28;20099;-76
2022/03/17 10:21:27;;;;;;;14.60;2.28;;;;;;;;;;5049865;28;20032;-77
2022/03/17 10:23:55;;;;;;;14.38;1.83;;;;;;;;;;5031057;28;20112;-77
2022/03/17 10:26:32;;;;;;;6.40;1.58;;;;;;;;;;5031091;28;20043;-77
2022/03/17 10:29:12;;;;;;;6.97;1.85;;;;;;;;;;5032048;28;20024;-76
2022/03/17 10:31:47;;;;;;;10.73;1.95;;;;;;;;;;5074092;28;20083;-77
2022/03/17 10:34:13;;;;;;;13.35;1.90;;;;;;;;;;5049734;28;20072;-76
2022/03/17 10:36:39;;;;;;;8.82;2.15;;;;;;;;;;5031198;28;20061;-76
2022/03/17 10:39:09;;;;;;;11.95;1.98;;;;;;;;;;5048504;28;20544;-77
2022/03/17 10:41:47;;;;;;;13.98;1.90;;;;;;;;;;5050219;28;20060;-75
2022/03/17 10:44:15;;;;;;;9.43;2.75;;;;;;;;;;5050288;28;20021;-76
2022/03/17 10:47:01;;;;;;;8.73;2.25;;;;;;;;;;5048753;28;20037;-77
2022/03/17 10:49:27;;;;;;;11.50;2.30;;;;;;;;;;5049584;28;20029;-76
2022/03/17 10:51:54;;;;;;;10.77;2.40;;;;;;;;;;5066150;28;20075;-75
2022/03/17 10:54:20;;;;;;;15.02;2.60;;;;;;;;;;5070441;28;20078;-75
2022/03/17 10:57:02;;;;;;;10.98;2.10;;;;;;;;;;5069747;28;20048;-77
2022/03/17 10:59:43;;;;;;;10.07;2.83;;;;;;;;;;5043863;28;20026;-77
2022/03/17 11:02:10;;;;;;;6.30;1.85;;;;;;;;;;5044559;28;20040;-76
2022/03/17 11:04:37;;;;;;;11.82;2.25;;;;;;;;;;5053814;28;20445;-76
2022/03/17 11:07:06;;;;;;;14.38;2.70;;;;;;;;;;5072664;28;20087;-77
2022/03/17 11:09:33;;;;;;;11.35;2.40;;;;;;;;;;5073107;28;20036;-78
2022/03/17 11:12:00;;;;;;;9.18;1.80;;;;;;;;;;5040605;28;20025;-76
2022/03/17 11:14:26;;;;;;;14.45;2.42;;;;;;;;;;5053009;28;20041;-76
2022/03/17 11:16:55;;;;;;;10.93;2.78;;;;;;;;;;5042760;28;20042;-76
2022/03/17 11:19:24;;;;;;;11.48;2.50;;;;;;;;;;5034801;28;20037;-77
2022/03/17 11:22:05;;;;;;;12.57;2.10;;;;;;;;;;5070423;28;20119;-77
2022/03/17 11:24:31;;;;;;;;;;;;;;;;;;5037794;28;20035;-76
2022/03/17 11:27:27;;;;;;;11.30;3.10;;;;;;;;;;5036291;28;20305;-77
2022/03/17 11:29:53;;;;;;;16.65;3.08;;;;;;;;;;5037169;28;20033;-77
2022/03/17 11:32:29;;;;;;;15.32;2.70;;;;;;;;;;5034833;28;20514;-77
2022/03/17 11:35:11;;;;;;;10.05;2.30;;;;;;;;;;5040985;28;20539;-76
2022/03/17 11:37:38;;;;;;;15.07;3.00;;;;;;;;;;5040101;28;20037;-76
2022/03/17 11:40:19;;;;;;;10.82;2.90;;;;;;;;;;5038972;28;20033;-75
2022/03/17 11:42:56;;;;;;;9.70;2.63;;;;;;;;;;5033491;28;20447;-74
2022/03/17 11:45:22;;;;;;;10.77;2.42;;;;;;;;;;5033656;28;20349;-75
2022/03/17 11:47:49;;;;;;;15.45;2.63;;;;;;;;;;5043433;28;20032;-76
2022/03/17 11:50:31;;;;;;;12.93;2.50;;;;;;;;;;5043276;28;20141;-76
2022/03/17 11:53:01;;;;;;;13.98;2.92;;;;;;;;;;4956531;28;20112;-76
2022/03/17 11:55:30;;;;;;;11.40;3.40;;;;;;;;;;5031802;28;20056;-76
2022/03/17 11:58:15;;;;;;;11.43;2.72;;;;;;;;;;5039464;28;20029;-77
2022/03/17 12:00:46;;;;;;;12.07;2.10;;;;;;;;;;5038380;28;20067;-77
2022/03/17 12:03:12;;;;;;;10.40;1.90;;;;;;;;;;5041760;28;20232;-77
2022/03/17 12:05:44;;;;;;;8.57;2.38;;;;;;;;;;5044370;28;20083;-76
2022/03/17 12:08:17;;;;;;;13.15;2.33;;;;;;;;;;5034615;28;20084;-77
2022/03/17 12:11:01;;;;;;;9.05;2.40;;;;;;;;;;5038649;28;20043;-76
2022/03/17 12:13:27;;;;;;;12.60;2.80;;;;;;;;;;5036740;28;20112;-75
2022/03/17 12:15:56;;;;;;;12.52;2.78;;;;;;;;;;5046852;28;20033;-75
2022/03/17 12:18:22;;;;;;;10.45;1.90;;;;;;;;;;5043491;28;20061;-75
2022/03/17 12:20:52;;;;;;;8.13;2.47;;;;;;;;;;5029721;28;20033;-76
2022/03/17 12:23:36;;;;;;;9.88;2.47;;;;;;;;;;5052175;28;20029;-75
2022/03/17 12:26:03;;;;;;;10.40;2.63;;;;;;;;;;5052815;28;20025;-76
2022/03/17 12:28:31;;;;;;;8.15;2.00;;;;;;;;;;5050963;28;20491;-75
2022/03/17 12:30:57;;;;;;;7.50;1.90;;;;;;;;;;5040049;28;20084;-75
2022/03/17 12:33:24;;;;;;;6.57;1.60;;;;;;;;;;5048718;28;20029;-77
2022/03/17 12:36:03;;;;;;;11.43;1.80;;;;;;;;;;5052195;28;20029;-76
2022/03/17 12:38:29;;;;;;;9.52;2.47;;;;;;;;;;5033388;28;20106;-77
2022/03/17 12:40:56;;;;;;;18.27;3.40;;;;;;;;;;5046262;28;20037;-74
2022/03/17 12:43:23;;;;;;;14.30;2.53;;;;;;;;;;5049337;28;20074;-75
2022/03/17 12:45:53;;;;;;;10.98;2.53;;;;;;;;;;5034894;28;20034;-75
2022/03/17 12:48:20;;;;;;;8.90;1.75;;;;;;;;;;5038446;28;20055;-76
2022/03/17 12:50:46;;;;;;;14.65;2.30;;;;;;;;;;5037643;28;20033;-76
2022/03/17 12:53:13;;;;;;;9.35;2.53;;;;;;;;;;5032709;28;20028;-76
2022/03/17 12:55:39;;;;;;;12.18;2.60;;;;;;;;;;5047267;28;20040;-73
2022/03/17 12:58:05;;;;;;;11.85;2.50;;;;;;;;;;5038458;28;20036;-76
2022/03/17 13:00:32;;;;;;;12.95;2.15;;;;;;;;;;5031369;28;20050;-76
2022/03/17 13:02:59;;;;;;;14.32;2.25;;;;;;;;;;5030879;28;20371;-75
2022/03/17 13:08:11;;;;;;;10.88;2.00;;;;;;;;;;5031106;28;20168;-75
2022/03/17 13:16:07;;;;;;;7.90;1.70;;;;;;;;;;5038852;28;20060;-75
2022/03/17 13:18:40;;;;;;;10.55;2.03;;;;;;;;;;5038215;28;20171;-75
2022/03/17 13:21:06;;;;;;;15.07;2.33;;;;;;;;;;5046648;28;20021;-75
2022/03/17 13:23:36;;;;;;;13.63;2.33;;;;;;;;;;5043152;28;20068;-75
2022/03/17 13:26:02;;;;;;;11.38;2.13;;;;;;;;;;5034429;28;20033;-76
2022/03/17 13:28:28;;;;;;;9.32;1.77;;;;;;;;;;5031792;28;20029;-76
2022/03/17 13:30:54;;;;;;;10.80;2.30;;;;;;;;;;5036315;28;20048;-77
2022/03/17 13:33:33;;;;;;;9.07;1.58;;;;;;;;;;5052104;28;20045;-76
2022/03/17 13:35:59;;;;;;;6.57;1.70;;;;;;;;;;5041640;28;20113;-76
2022/03/17 13:38:32;;;;;;;10.23;2.25;;;;;;;;;;5030440;28;20034;-76
2022/03/17 13:41:00;;;;;;;10.75;2.30;;;;;;;;;;5044188;28;20098;-77
2022/03/17 13:43:30;;;;;;;14.82;2.10;;;;;;;;;;5050483;28;20025;-77
2022/03/17 13:45:56;;;;;;;11.98;1.65;;;;;;;;;;5050430;28;20025;-78
2022/03/17 13:48:23;;;;;;;9.88;1.70;;;;;;;;;;5049258;28;20475;-75
2022/03/17 13:50:49;;;;;;;15.20;2.28;;;;;;;;;;5047062;28;20466;-76
2022/03/17 13:53:16;;;;;;;16.27;2.08;;;;;;;;;;5047863;28;20036;-76
2022/03/17 13:55:45;;;;;;;9.98;1.90;;;;;;;;;;5048289;28;20285;-76
2022/03/17 13:58:14;;;;;;;12.77;1.98;;;;;;;;;;5038644;28;20052;-77
2022/03/17 14:00:41;;;;;;;13.18;2.45;;;;;;;;;;5039004;28;20428;-78
2022/03/17 14:03:14;;;;;;;9.38;1.80;;;;;;;;;;5048529;28;20040;-76
2022/03/17 14:05:58;;;;;;;10.13;1.73;;;;;;;;;;5030616;28;20117;-76
2022/03/17 14:08:25;;;;;;;8.05;2.08;;;;;;;;;;5035095;28;20044;-76
2022/03/17 14:10:51;;;;;;;11.60;2.17;;;;;;;;;;5035588;28;20017;-77
2022/03/17 14:13:17;;;;;;;10.40;2.00;;;;;;;;;;5049620;28;20078;-76
2022/03/17 14:15:44;;;;;;;11.82;1.75;;;;;;;;;;5039597;28;20037;-76
2022/03/17 14:18:10;;;;;;;16.63;1.88;;;;;;;;;;5031769;28;20033;-76
2022/03/17 14:20:36;;;;;;;6.55;1.52;;;;;;;;;;5042157;28;20067;-76
2022/03/17 14:25:47;;;;;;;10.75;1.70;;;;;;;;;;5042276;28;20097;-75
2022/03/17 14:28:13;;;;;;;10.30;1.85;;;;;;;;;;5035823;28;20441;-77
2022/03/17 14:30:39;;;;;;;9.25;1.70;;;;;;;;;;5032555;28;20025;-76
2022/03/17 14:33:05;;;;;;;9.10;2.67;;;;;;;;;;5047642;28;20086;-76
2022/03/17 14:35:33;;;;;;;9.60;1.52;;;;;;;;;;5050204;28;20394;-76
2022/03/17 14:38:00;;;;;;;7.40;1.50;;;;;;;;;;5041366;28;20115;-76
2022/03/17 14:40:26;;;;;;;8.07;1.63;;;;;;;;;;5045763;28;20070;-76
2022/03/17 14:42:52;;;;;;;9.68;1.55;;;;;;;;;;5036049;28;20069;-75
2022/03/17 14:45:18;;;;;;;8.40;1.55;;;;;;;;;;5040767;28;20036;-76
2022/03/17 14:47:44;;;;;;;5.32;1.27;;;;;;;;;;5047537;28;20668;-76
2022/03/17 14:50:10;;;;;;;7.63;1.73;;;;;;;;;;5054230;28;20068;-75
2022/03/17 14:52:36;;;;;;;9.10;1.95;;;;;;;;;;5050387;28;20110;-75
2022/03/17 14:55:03;;;;;;;10.45;2.42;;;;;;;;;;5039548;28;20040;-75